메인 페이지
METAR-TAF:

METAR-TAF

공항 :

Shelby County Airport

Alabaster, 앨라배마, 미국

위도: 33-10-42N, 경도: 086-46-54W, 고도: 178m

현재 날씨관측

예보는 48분 전, 00:53시(UTC)에 발표되었습니다.
무풍
온도 23°C
습도 94%
기압 1015 hPa
시정: 14.5km
고도 8000ft 상공 구름 조금
고도 10000ft 상공 구름 보통

METAR: KEET 170053Z AUTO 00000KT 9SM FEW080 SCT100 23/22 A2997 RMK AO2 RAB19E53 TSE06 SLP143 P0002 T02280222

시각: 20:41 (01:41 UTC)

예보

예보는 23분 전, 01:18시(UTC)에 발표되었습니다.
예보 대상 시간: 17일 01시부터 17일 24시까지 (UTC)
여러 방향의 바람 5kt
시정: 10km
고도 8000ft 상공 구름 보통
고도 10000ft 상공 구름 보통
17일 0500시부터 (UTC)
kt
시정: 10km
고도 25000ft 상공 구름 많음
17일 1800시부터 (UTC)
남남서6kt
시정: 10km
고도 6000ft 상공 구름 많음
확률 30%
17일 18시부터 17일 24시까지 (UTC)
시정: 9.7km
고도 4000ft 상공 구름 많음, 적란운.
뇌우, 약한비

TAF: KEET 170118Z 1701/1724 VRB05KT P6SM SCT080 SCT100 FM170500 00000KT P6SM BKN250 FM171800 20006KT P6SM BKN060 PROB30 1718/1724 6SM -TSRA BKN040CB

4,000개 이상의 공항 관측 자료 및 예보 (METAR 및 TAF 보고).

지도상에서 검색 가능한 기상관측소가 노란 점과 빨간 점으로 표시되어 있습니다.

기상관측소 명을 보려면 표시 위로 마우스를 이동하세요.

날씨 관측과 예보를 보려면 클릭하세요.

지도 변경 : 확대하려면 엑스 표시가 있는 녹색 버튼, 축소하려면 빼기 표시가 있는 녹색 버튼, 다음 페이지의 지도를 보려면 녹색 화살표를 클릭하세요.


METAR-TAF: